sensor_id;sensor_type;location;lat;lon;timestamp;P1;durP1;ratioP1;P2;durP2;ratioP2
35540;SDS011;21650;48.840;9.162;2023-03-01T00:01:25;18.87;;;12.60;;
35540;SDS011;21650;48.840;9.162;2023-03-01T00:03:53;22.27;;;12.87;;
35540;SDS011;21650;48.840;9.162;2023-03-01T00:06:19;19.77;;;12.53;;
35540;SDS011;21650;48.840;9.162;2023-03-01T00:08:46;23.03;;;13.03;;
35540;SDS011;21650;48.840;9.162;2023-03-01T00:11:21;19.13;;;12.20;;
35540;SDS011;21650;48.840;9.162;2023-03-01T00:13:52;28.33;;;12.67;;
35540;SDS011;21650;48.840;9.162;2023-03-01T00:16:21;21.57;;;12.30;;
35540;SDS011;21650;48.840;9.162;2023-03-01T00:18:49;25.17;;;12.80;;
35540;SDS011;21650;48.840;9.162;2023-03-01T00:21:15;26.10;;;12.03;;
35540;SDS011;21650;48.840;9.162;2023-03-01T00:23:41;20.73;;;12.67;;
35540;SDS011;21650;48.840;9.162;2023-03-01T00:26:09;23.00;;;12.03;;
35540;SDS011;21650;48.840;9.162;2023-03-01T00:28:37;21.03;;;12.30;;
35540;SDS011;21650;48.840;9.162;2023-03-01T00:31:07;19.23;;;11.40;;
35540;SDS011;21650;48.840;9.162;2023-03-01T00:33:34;19.67;;;11.33;;
35540;SDS011;21650;48.840;9.162;2023-03-01T00:36:00;20.53;;;11.43;;
35540;SDS011;21650;48.840;9.162;2023-03-01T00:38:26;22.03;;;12.50;;
35540;SDS011;21650;48.840;9.162;2023-03-01T00:40:51;19.03;;;12.47;;
35540;SDS011;21650;48.840;9.162;2023-03-01T00:43:17;20.83;;;12.10;;
35540;SDS011;21650;48.840;9.162;2023-03-01T00:45:43;20.60;;;11.33;;
35540;SDS011;21650;48.840;9.162;2023-03-01T00:48:09;22.40;;;13.70;;
35540;SDS011;21650;48.840;9.162;2023-03-01T00:50:34;25.00;;;13.97;;
35540;SDS011;21650;48.840;9.162;2023-03-01T00:53:00;25.77;;;12.30;;
35540;SDS011;21650;48.840;9.162;2023-03-01T00:55:26;25.33;;;12.63;;
35540;SDS011;21650;48.840;9.162;2023-03-01T00:57:51;22.30;;;13.57;;
35540;SDS011;21650;48.840;9.162;2023-03-01T01:00:18;24.07;;;12.63;;
35540;SDS011;21650;48.840;9.162;2023-03-01T01:02:44;23.93;;;12.73;;
35540;SDS011;21650;48.840;9.162;2023-03-01T01:05:10;23.47;;;13.57;;
35540;SDS011;21650;48.840;9.162;2023-03-01T01:07:37;23.10;;;13.73;;
35540;SDS011;21650;48.840;9.162;2023-03-01T01:10:02;18.03;;;11.87;;
35540;SDS011;21650;48.840;9.162;2023-03-01T01:12:28;23.53;;;13.57;;
35540;SDS011;21650;48.840;9.162;2023-03-01T01:14:54;20.93;;;12.47;;
35540;SDS011;21650;48.840;9.162;2023-03-01T01:17:20;24.43;;;13.17;;
35540;SDS011;21650;48.840;9.162;2023-03-01T01:19:45;23.70;;;13.57;;
35540;SDS011;21650;48.840;9.162;2023-03-01T01:22:11;20.13;;;12.77;;
35540;SDS011;21650;48.840;9.162;2023-03-01T01:24:36;23.63;;;12.57;;
35540;SDS011;21650;48.840;9.162;2023-03-01T01:27:02;22.63;;;13.77;;
35540;SDS011;21650;48.840;9.162;2023-03-01T01:29:28;25.57;;;14.20;;
35540;SDS011;21650;48.840;9.162;2023-03-01T01:31:53;28.27;;;16.63;;
35540;SDS011;21650;48.840;9.162;2023-03-01T01:34:20;21.63;;;12.70;;
35540;SDS011;21650;48.840;9.162;2023-03-01T01:36:52;23.47;;;12.90;;
35540;SDS011;21650;48.840;9.162;2023-03-01T01:39:19;21.10;;;12.00;;
35540;SDS011;21650;48.840;9.162;2023-03-01T01:41:45;20.97;;;12.33;;
35540;SDS011;21650;48.840;9.162;2023-03-01T01:44:17;25.60;;;13.97;;
35540;SDS011;21650;48.840;9.162;2023-03-01T01:49:35;24.63;;;14.43;;
35540;SDS011;21650;48.840;9.162;2023-03-01T01:52:16;20.20;;;12.00;;
35540;SDS011;21650;48.840;9.162;2023-03-01T01:57:37;21.73;;;12.63;;
35540;SDS011;21650;48.840;9.162;2023-03-01T02:00:25;20.23;;;13.37;;
35540;SDS011;21650;48.840;9.162;2023-03-01T02:02:57;22.63;;;13.70;;
35540;SDS011;21650;48.840;9.162;2023-03-01T02:05:46;22.50;;;12.57;;
35540;SDS011;21650;48.840;9.162;2023-03-01T02:08:16;25.33;;;14.40;;
35540;SDS011;21650;48.840;9.162;2023-03-01T02:10:45;20.70;;;12.87;;
35540;SDS011;21650;48.840;9.162;2023-03-01T02:13:13;23.23;;;13.20;;
35540;SDS011;21650;48.840;9.162;2023-03-01T02:15:39;23.83;;;13.00;;
35540;SDS011;21650;48.840;9.162;2023-03-01T02:18:06;28.87;;;13.90;;
35540;SDS011;21650;48.840;9.162;2023-03-01T02:23:30;28.30;;;14.23;;
35540;SDS011;21650;48.840;9.162;2023-03-01T02:26:05;23.40;;;13.70;;
35540;SDS011;21650;48.840;9.162;2023-03-01T02:28:40;27.40;;;13.30;;
35540;SDS011;21650;48.840;9.162;2023-03-01T02:31:08;19.83;;;12.40;;
35540;SDS011;21650;48.840;9.162;2023-03-01T02:33:54;27.43;;;14.37;;
35540;SDS011;21650;48.840;9.162;2023-03-01T02:36:31;27.13;;;14.63;;
35540;SDS011;21650;48.840;9.162;2023-03-01T02:39:01;27.00;;;15.10;;
35540;SDS011;21650;48.840;9.162;2023-03-01T02:41:30;25.87;;;14.33;;
35540;SDS011;21650;48.840;9.162;2023-03-01T02:44:00;24.70;;;13.83;;
35540;SDS011;21650;48.840;9.162;2023-03-01T02:46:26;24.47;;;14.30;;
35540;SDS011;21650;48.840;9.162;2023-03-01T02:48:53;24.80;;;14.37;;
35540;SDS011;21650;48.840;9.162;2023-03-01T02:51:26;26.67;;;15.30;;
35540;SDS011;21650;48.840;9.162;2023-03-01T02:56:45;25.83;;;15.37;;
35540;SDS011;21650;48.840;9.162;2023-03-01T02:59:13;28.33;;;15.03;;
35540;SDS011;21650;48.840;9.162;2023-03-01T03:01:41;26.73;;;14.93;;
35540;SDS011;21650;48.840;9.162;2023-03-01T03:04:08;25.37;;;14.73;;
35540;SDS011;21650;48.840;9.162;2023-03-01T03:06:36;23.67;;;13.83;;
35540;SDS011;21650;48.840;9.162;2023-03-01T03:09:02;25.67;;;13.83;;
35540;SDS011;21650;48.840;9.162;2023-03-01T03:11:29;22.73;;;13.27;;
35540;SDS011;21650;48.840;9.162;2023-03-01T03:13:55;23.80;;;13.87;;
35540;SDS011;21650;48.840;9.162;2023-03-01T03:16:21;25.40;;;13.57;;
35540;SDS011;21650;48.840;9.162;2023-03-01T03:18:48;22.00;;;13.50;;
35540;SDS011;21650;48.840;9.162;2023-03-01T03:21:14;23.97;;;14.23;;
35540;SDS011;21650;48.840;9.162;2023-03-01T03:23:41;21.63;;;13.20;;
35540;SDS011;21650;48.840;9.162;2023-03-01T03:26:07;28.03;;;16.50;;
35540;SDS011;21650;48.840;9.162;2023-03-01T03:28:33;26.77;;;15.10;;
35540;SDS011;21650;48.840;9.162;2023-03-01T03:30:59;25.93;;;14.77;;
35540;SDS011;21650;48.840;9.162;2023-03-01T03:33:29;24.03;;;14.07;;
35540;SDS011;21650;48.840;9.162;2023-03-01T03:35:55;25.93;;;14.13;;
35540;SDS011;21650;48.840;9.162;2023-03-01T03:38:21;23.20;;;15.00;;
35540;SDS011;21650;48.840;9.162;2023-03-01T03:40:48;26.27;;;14.23;;
35540;SDS011;21650;48.840;9.162;2023-03-01T03:43:17;24.80;;;15.20;;
35540;SDS011;21650;48.840;9.162;2023-03-01T03:45:44;23.67;;;14.37;;
35540;SDS011;21650;48.840;9.162;2023-03-01T03:48:10;22.73;;;13.13;;
35540;SDS011;21650;48.840;9.162;2023-03-01T03:50:37;27.83;;;15.33;;
35540;SDS011;21650;48.840;9.162;2023-03-01T03:53:05;30.23;;;14.83;;
35540;SDS011;21650;48.840;9.162;2023-03-01T03:55:32;25.50;;;13.80;;
35540;SDS011;21650;48.840;9.162;2023-03-01T03:57:59;23.40;;;14.30;;
35540;SDS011;21650;48.840;9.162;2023-03-01T04:00:31;29.37;;;14.57;;
35540;SDS011;21650;48.840;9.162;2023-03-01T04:02:58;23.00;;;14.37;;
35540;SDS011;21650;48.840;9.162;2023-03-01T04:05:23;27.33;;;15.03;;
35540;SDS011;21650;48.840;9.162;2023-03-01T04:07:49;23.27;;;14.73;;
35540;SDS011;21650;48.840;9.162;2023-03-01T04:10:25;26.90;;;14.07;;
35540;SDS011;21650;48.840;9.162;2023-03-01T04:12:52;26.03;;;14.80;;
35540;SDS011;21650;48.840;9.162;2023-03-01T04:15:18;24.33;;;14.27;;
35540;SDS011;21650;48.840;9.162;2023-03-01T04:17:44;22.83;;;13.73;;
35540;SDS011;21650;48.840;9.162;2023-03-01T04:20:12;28.13;;;14.97;;
35540;SDS011;21650;48.840;9.162;2023-03-01T04:22:49;27.50;;;14.80;;
35540;SDS011;21650;48.840;9.162;2023-03-01T04:25:33;32.07;;;15.60;;
35540;SDS011;21650;48.840;9.162;2023-03-01T04:27:59;25.87;;;14.10;;
35540;SDS011;21650;48.840;9.162;2023-03-01T04:30:24;24.57;;;14.43;;
35540;SDS011;21650;48.840;9.162;2023-03-01T04:32:50;29.27;;;13.53;;
35540;SDS011;21650;48.840;9.162;2023-03-01T04:35:15;29.33;;;14.53;;
35540;SDS011;21650;48.840;9.162;2023-03-01T04:37:41;22.23;;;13.90;;
35540;SDS011;21650;48.840;9.162;2023-03-01T04:40:07;24.33;;;14.00;;
35540;SDS011;21650;48.840;9.162;2023-03-01T04:42:41;28.93;;;16.13;;
35540;SDS011;21650;48.840;9.162;2023-03-01T04:45:07;26.07;;;14.60;;
35540;SDS011;21650;48.840;9.162;2023-03-01T04:47:38;25.60;;;14.17;;
35540;SDS011;21650;48.840;9.162;2023-03-01T04:50:04;22.97;;;15.10;;
35540;SDS011;21650;48.840;9.162;2023-03-01T04:52:30;25.60;;;14.93;;
35540;SDS011;21650;48.840;9.162;2023-03-01T04:54:56;24.83;;;14.60;;
35540;SDS011;21650;48.840;9.162;2023-03-01T04:57:22;31.40;;;15.73;;
35540;SDS011;21650;48.840;9.162;2023-03-01T04:59:47;28.17;;;14.30;;
35540;SDS011;21650;48.840;9.162;2023-03-01T05:02:13;27.40;;;14.67;;
35540;SDS011;21650;48.840;9.162;2023-03-01T05:04:39;24.93;;;14.37;;
35540;SDS011;21650;48.840;9.162;2023-03-01T05:07:04;26.87;;;15.20;;
35540;SDS011;21650;48.840;9.162;2023-03-01T05:09:30;26.63;;;14.63;;
35540;SDS011;21650;48.840;9.162;2023-03-01T05:11:55;26.10;;;15.03;;
35540;SDS011;21650;48.840;9.162;2023-03-01T05:14:21;31.23;;;15.17;;
35540;SDS011;21650;48.840;9.162;2023-03-01T05:16:47;24.83;;;15.03;;
35540;SDS011;21650;48.840;9.162;2023-03-01T05:19:13;26.00;;;14.17;;
35540;SDS011;21650;48.840;9.162;2023-03-01T05:21:47;30.10;;;16.07;;
35540;SDS011;21650;48.840;9.162;2023-03-01T05:24:29;28.47;;;15.40;;
35540;SDS011;21650;48.840;9.162;2023-03-01T05:26:56;26.33;;;15.03;;
35540;SDS011;21650;48.840;9.162;2023-03-01T05:29:22;27.90;;;15.87;;
35540;SDS011;21650;48.840;9.162;2023-03-01T05:31:53;28.53;;;16.40;;
35540;SDS011;21650;48.840;9.162;2023-03-01T05:34:33;26.87;;;14.23;;
35540;SDS011;21650;48.840;9.162;2023-03-01T05:37:00;28.47;;;16.03;;
35540;SDS011;21650;48.840;9.162;2023-03-01T05:39:26;29.53;;;15.57;;
35540;SDS011;21650;48.840;9.162;2023-03-01T05:41:53;29.77;;;15.10;;
35540;SDS011;21650;48.840;9.162;2023-03-01T05:44:23;30.03;;;16.50;;
35540;SDS011;21650;48.840;9.162;2023-03-01T05:46:50;29.07;;;14.33;;
35540;SDS011;21650;48.840;9.162;2023-03-01T05:49:16;26.27;;;14.97;;
35540;SDS011;21650;48.840;9.162;2023-03-01T05:51:42;26.27;;;15.87;;
35540;SDS011;21650;48.840;9.162;2023-03-01T05:54:13;24.03;;;14.07;;
35540;SDS011;21650;48.840;9.162;2023-03-01T05:56:38;32.37;;;16.13;;
35540;SDS011;21650;48.840;9.162;2023-03-01T05:59:04;25.37;;;13.50;;
35540;SDS011;21650;48.840;9.162;2023-03-01T06:01:31;22.77;;;13.90;;
35540;SDS011;21650;48.840;9.162;2023-03-01T06:03:58;24.50;;;15.03;;
35540;SDS011;21650;48.840;9.162;2023-03-01T06:06:24;26.53;;;15.27;;
35540;SDS011;21650;48.840;9.162;2023-03-01T06:08:50;24.90;;;15.20;;
35540;SDS011;21650;48.840;9.162;2023-03-01T06:11:16;29.93;;;14.60;;
35540;SDS011;21650;48.840;9.162;2023-03-01T06:13:42;29.67;;;15.37;;
35540;SDS011;21650;48.840;9.162;2023-03-01T06:16:09;26.63;;;14.80;;
35540;SDS011;21650;48.840;9.162;2023-03-01T06:18:35;29.23;;;15.97;;
35540;SDS011;21650;48.840;9.162;2023-03-01T06:23:36;26.93;;;15.93;;
35540;SDS011;21650;48.840;9.162;2023-03-01T06:26:05;29.30;;;16.07;;
35540;SDS011;21650;48.840;9.162;2023-03-01T06:28:34;25.40;;;15.53;;
35540;SDS011;21650;48.840;9.162;2023-03-01T06:31:00;24.87;;;14.60;;
35540;SDS011;21650;48.840;9.162;2023-03-01T06:33:26;27.43;;;15.70;;
35540;SDS011;21650;48.840;9.162;2023-03-01T06:35:54;27.17;;;15.20;;
35540;SDS011;21650;48.840;9.162;2023-03-01T06:38:20;27.80;;;16.13;;
35540;SDS011;21650;48.840;9.162;2023-03-01T06:40:51;24.33;;;14.73;;
35540;SDS011;21650;48.840;9.162;2023-03-01T06:43:18;26.83;;;15.17;;
35540;SDS011;21650;48.840;9.162;2023-03-01T06:45:43;30.40;;;17.03;;
35540;SDS011;21650;48.840;9.162;2023-03-01T06:48:09;30.00;;;16.33;;
35540;SDS011;21650;48.840;9.162;2023-03-01T06:50:35;31.60;;;16.63;;
35540;SDS011;21650;48.840;9.162;2023-03-01T06:53:01;28.20;;;17.07;;
35540;SDS011;21650;48.840;9.162;2023-03-01T06:55:27;32.13;;;16.47;;
35540;SDS011;21650;48.840;9.162;2023-03-01T06:57:56;25.53;;;14.93;;
35540;SDS011;21650;48.840;9.162;2023-03-01T07:00:22;29.70;;;14.43;;
35540;SDS011;21650;48.840;9.162;2023-03-01T07:02:49;28.50;;;16.20;;
35540;SDS011;21650;48.840;9.162;2023-03-01T07:05:14;27.70;;;15.00;;
35540;SDS011;21650;48.840;9.162;2023-03-01T07:07:40;29.47;;;15.27;;
35540;SDS011;21650;48.840;9.162;2023-03-01T07:10:06;33.00;;;16.33;;
35540;SDS011;21650;48.840;9.162;2023-03-01T07:12:32;37.47;;;17.33;;
35540;SDS011;21650;48.840;9.162;2023-03-01T07:14:58;31.77;;;15.77;;
35540;SDS011;21650;48.840;9.162;2023-03-01T07:17:23;27.07;;;16.43;;
35540;SDS011;21650;48.840;9.162;2023-03-01T07:19:49;29.70;;;14.70;;
35540;SDS011;21650;48.840;9.162;2023-03-01T07:22:14;28.13;;;15.87;;
35540;SDS011;21650;48.840;9.162;2023-03-01T07:24:40;33.33;;;17.27;;
35540;SDS011;21650;48.840;9.162;2023-03-01T07:27:06;27.40;;;15.87;;
35540;SDS011;21650;48.840;9.162;2023-03-01T07:29:32;31.50;;;17.27;;
35540;SDS011;21650;48.840;9.162;2023-03-01T07:31:57;33.73;;;17.00;;
35540;SDS011;21650;48.840;9.162;2023-03-01T07:34:23;25.90;;;15.33;;
35540;SDS011;21650;48.840;9.162;2023-03-01T07:36:49;32.50;;;16.87;;
35540;SDS011;21650;48.840;9.162;2023-03-01T07:39:15;25.90;;;16.17;;
35540;SDS011;21650;48.840;9.162;2023-03-01T07:41:40;30.07;;;16.23;;
35540;SDS011;21650;48.840;9.162;2023-03-01T07:44:06;30.67;;;16.93;;
35540;SDS011;21650;48.840;9.162;2023-03-01T07:46:31;31.13;;;16.40;;
35540;SDS011;21650;48.840;9.162;2023-03-01T07:48:57;32.03;;;16.37;;
35540;SDS011;21650;48.840;9.162;2023-03-01T07:51:23;26.10;;;15.27;;
35540;SDS011;21650;48.840;9.162;2023-03-01T07:53:49;31.63;;;16.10;;
35540;SDS011;21650;48.840;9.162;2023-03-01T07:56:15;28.93;;;16.17;;
35540;SDS011;21650;48.840;9.162;2023-03-01T07:58:43;29.37;;;16.13;;
35540;SDS011;21650;48.840;9.162;2023-03-01T08:01:10;29.80;;;15.27;;
35540;SDS011;21650;48.840;9.162;2023-03-01T08:03:37;30.37;;;16.23;;
35540;SDS011;21650;48.840;9.162;2023-03-01T08:06:04;30.03;;;15.57;;
35540;SDS011;21650;48.840;9.162;2023-03-01T08:08:31;29.47;;;16.67;;
35540;SDS011;21650;48.840;9.162;2023-03-01T08:11:00;32.13;;;15.83;;
35540;SDS011;21650;48.840;9.162;2023-03-01T08:13:29;29.93;;;15.37;;
35540;SDS011;21650;48.840;9.162;2023-03-01T08:16:00;29.47;;;17.40;;
35540;SDS011;21650;48.840;9.162;2023-03-01T08:18:27;26.97;;;16.80;;
35540;SDS011;21650;48.840;9.162;2023-03-01T08:20:52;34.73;;;16.30;;
35540;SDS011;21650;48.840;9.162;2023-03-01T08:23:18;27.87;;;16.07;;
35540;SDS011;21650;48.840;9.162;2023-03-01T08:25:43;27.73;;;14.27;;
35540;SDS011;21650;48.840;9.162;2023-03-01T08:28:09;26.97;;;14.43;;
35540;SDS011;21650;48.840;9.162;2023-03-01T08:30:35;30.77;;;16.97;;
35540;SDS011;21650;48.840;9.162;2023-03-01T08:33:00;33.60;;;16.77;;
35540;SDS011;21650;48.840;9.162;2023-03-01T08:35:26;31.10;;;17.97;;
35540;SDS011;21650;48.840;9.162;2023-03-01T08:37:51;27.50;;;16.80;;
35540;SDS011;21650;48.840;9.162;2023-03-01T08:40:17;29.37;;;15.90;;
35540;SDS011;21650;48.840;9.162;2023-03-01T08:42:43;27.17;;;15.07;;
35540;SDS011;21650;48.840;9.162;2023-03-01T08:45:08;30.53;;;17.07;;
35540;SDS011;21650;48.840;9.162;2023-03-01T08:47:35;31.67;;;14.63;;
35540;SDS011;21650;48.840;9.162;2023-03-01T08:50:01;27.70;;;16.23;;
35540;SDS011;21650;48.840;9.162;2023-03-01T08:52:27;28.67;;;16.43;;
35540;SDS011;21650;48.840;9.162;2023-03-01T08:54:55;35.93;;;18.30;;
35540;SDS011;21650;48.840;9.162;2023-03-01T08:57:21;26.83;;;15.67;;
35540;SDS011;21650;48.840;9.162;2023-03-01T08:59:47;28.13;;;16.00;;
35540;SDS011;21650;48.840;9.162;2023-03-01T09:02:13;27.63;;;17.50;;
35540;SDS011;21650;48.840;9.162;2023-03-01T09:04:43;31.87;;;16.93;;
35540;SDS011;21650;48.840;9.162;2023-03-01T09:07:09;26.50;;;15.13;;
35540;SDS011;21650;48.840;9.162;2023-03-01T09:09:35;29.80;;;17.03;;
35540;SDS011;21650;48.840;9.162;2023-03-01T09:12:02;28.80;;;15.90;;
35540;SDS011;21650;48.840;9.162;2023-03-01T09:14:27;30.77;;;17.50;;
35540;SDS011;21650;48.840;9.162;2023-03-01T09:16:53;28.67;;;16.53;;
35540;SDS011;21650;48.840;9.162;2023-03-01T09:19:19;31.30;;;16.80;;
35540;SDS011;21650;48.840;9.162;2023-03-01T09:21:44;28.10;;;16.57;;
35540;SDS011;21650;48.840;9.162;2023-03-01T09:24:17;30.23;;;17.43;;
35540;SDS011;21650;48.840;9.162;2023-03-01T09:26:47;29.80;;;16.30;;
35540;SDS011;21650;48.840;9.162;2023-03-01T09:29:13;28.90;;;16.77;;
35540;SDS011;21650;48.840;9.162;2023-03-01T09:31:40;27.13;;;15.83;;
35540;SDS011;21650;48.840;9.162;2023-03-01T09:34:06;36.93;;;17.33;;
35540;SDS011;21650;48.840;9.162;2023-03-01T09:36:32;30.67;;;16.87;;
35540;SDS011;21650;48.840;9.162;2023-03-01T09:38:58;28.73;;;15.87;;
35540;SDS011;21650;48.840;9.162;2023-03-01T09:43:57;27.70;;;16.23;;
35540;SDS011;21650;48.840;9.162;2023-03-01T09:46:29;34.83;;;17.07;;
35540;SDS011;21650;48.840;9.162;2023-03-01T09:49:10;36.23;;;16.93;;
35540;SDS011;21650;48.840;9.162;2023-03-01T09:51:39;30.63;;;16.90;;
35540;SDS011;21650;48.840;9.162;2023-03-01T09:54:05;31.73;;;16.53;;
35540;SDS011;21650;48.840;9.162;2023-03-01T10:01:58;27.33;;;16.30;;
35540;SDS011;21650;48.840;9.162;2023-03-01T10:04:50;28.37;;;15.73;;
35540;SDS011;21650;48.840;9.162;2023-03-01T10:10:04;29.73;;;16.83;;
35540;SDS011;21650;48.840;9.162;2023-03-01T10:12:36;26.53;;;16.57;;
35540;SDS011;21650;48.840;9.162;2023-03-01T10:17:41;28.83;;;16.30;;
35540;SDS011;21650;48.840;9.162;2023-03-01T10:22:48;27.73;;;16.13;;
35540;SDS011;21650;48.840;9.162;2023-03-01T10:25:23;31.00;;;16.30;;
35540;SDS011;21650;48.840;9.162;2023-03-01T10:28:10;28.13;;;16.67;;
35540;SDS011;21650;48.840;9.162;2023-03-01T10:30:53;25.97;;;15.40;;
35540;SDS011;21650;48.840;9.162;2023-03-01T10:36:02;29.93;;;16.50;;
35540;SDS011;21650;48.840;9.162;2023-03-01T10:38:29;28.60;;;16.27;;
35540;SDS011;21650;48.840;9.162;2023-03-01T10:41:00;35.13;;;16.57;;
35540;SDS011;21650;48.840;9.162;2023-03-01T10:43:32;27.03;;;16.13;;
35540;SDS011;21650;48.840;9.162;2023-03-01T10:46:30;32.00;;;17.70;;
35540;SDS011;21650;48.840;9.162;2023-03-01T10:49:05;25.47;;;16.40;;
35540;SDS011;21650;48.840;9.162;2023-03-01T10:51:32;29.00;;;16.70;;
35540;SDS011;21650;48.840;9.162;2023-03-01T10:53:58;23.27;;;15.17;;
35540;SDS011;21650;48.840;9.162;2023-03-01T10:56:24;25.07;;;14.53;;
35540;SDS011;21650;48.840;9.162;2023-03-01T10:59:03;27.50;;;16.37;;
35540;SDS011;21650;48.840;9.162;2023-03-01T11:01:31;29.40;;;15.97;;
35540;SDS011;21650;48.840;9.162;2023-03-01T11:04:17;29.20;;;15.10;;
35540;SDS011;21650;48.840;9.162;2023-03-01T11:06:43;26.00;;;14.97;;
35540;SDS011;21650;48.840;9.162;2023-03-01T11:09:23;29.10;;;16.67;;
35540;SDS011;21650;48.840;9.162;2023-03-01T11:11:55;26.40;;;14.73;;
35540;SDS011;21650;48.840;9.162;2023-03-01T11:14:23;24.67;;;15.33;;
35540;SDS011;21650;48.840;9.162;2023-03-01T11:17:02;26.40;;;14.30;;
35540;SDS011;21650;48.840;9.162;2023-03-01T11:19:31;26.10;;;14.60;;
35540;SDS011;21650;48.840;9.162;2023-03-01T11:21:59;25.03;;;15.43;;
35540;SDS011;21650;48.840;9.162;2023-03-01T11:24:30;25.57;;;14.27;;
35540;SDS011;21650;48.840;9.162;2023-03-01T11:27:03;26.63;;;15.47;;
35540;SDS011;21650;48.840;9.162;2023-03-01T11:29:36;23.53;;;14.43;;
35540;SDS011;21650;48.840;9.162;2023-03-01T11:32:07;26.97;;;14.80;;
35540;SDS011;21650;48.840;9.162;2023-03-01T11:34:42;25.37;;;14.20;;
35540;SDS011;21650;48.840;9.162;2023-03-01T11:37:20;20.80;;;13.90;;
35540;SDS011;21650;48.840;9.162;2023-03-01T11:39:59;23.40;;;14.47;;
35540;SDS011;21650;48.840;9.162;2023-03-01T11:45:32;20.87;;;12.87;;
35540;SDS011;21650;48.840;9.162;2023-03-01T11:48:35;23.47;;;13.87;;
35540;SDS011;21650;48.840;9.162;2023-03-01T11:51:17;24.93;;;14.07;;
35540;SDS011;21650;48.840;9.162;2023-03-01T11:54:41;23.07;;;14.20;;
35540;SDS011;21650;48.840;9.162;2023-03-01T11:56:54;26.13;;;14.47;;
35540;SDS011;21650;48.840;9.162;2023-03-01T11:59:38;28.30;;;13.90;;
35540;SDS011;21650;48.840;9.162;2023-03-01T12:08:17;24.17;;;13.47;;
35540;SDS011;21650;48.840;9.162;2023-03-01T12:34:15;21.47;;;14.37;;
35540;SDS011;21650;48.840;9.162;2023-03-01T12:39:53;19.80;;;13.60;;
35540;SDS011;21650;48.840;9.162;2023-03-01T12:42:31;18.83;;;13.73;;
35540;SDS011;21650;48.840;9.162;2023-03-01T12:45:44;26.57;;;14.93;;
35540;SDS011;21650;48.840;9.162;2023-03-01T12:51:17;22.67;;;15.07;;
35540;SDS011;21650;48.840;9.162;2023-03-01T12:53:48;24.90;;;15.07;;
35540;SDS011;21650;48.840;9.162;2023-03-01T12:56:25;24.47;;;15.53;;
35540;SDS011;21650;48.840;9.162;2023-03-01T13:13:00;19.00;;;13.57;;
35540;SDS011;21650;48.840;9.162;2023-03-01T13:15:35;23.73;;;14.67;;
35540;SDS011;21650;48.840;9.162;2023-03-01T13:18:03;23.20;;;14.17;;
35540;SDS011;21650;48.840;9.162;2023-03-01T13:20:51;22.73;;;14.00;;
35540;SDS011;21650;48.840;9.162;2023-03-01T13:28:39;24.67;;;14.37;;
35540;SDS011;21650;48.840;9.162;2023-03-01T13:31:10;25.03;;;14.53;;
35540;SDS011;21650;48.840;9.162;2023-03-01T13:33:48;21.53;;;13.33;;
35540;SDS011;21650;48.840;9.162;2023-03-01T13:41:52;23.77;;;14.40;;
35540;SDS011;21650;48.840;9.162;2023-03-01T13:47:07;23.40;;;15.07;;
35540;SDS011;21650;48.840;9.162;2023-03-01T13:49:59;25.73;;;15.53;;
35540;SDS011;21650;48.840;9.162;2023-03-01T13:55:21;26.77;;;15.83;;
35540;SDS011;21650;48.840;9.162;2023-03-01T13:57:55;23.43;;;15.07;;
35540;SDS011;21650;48.840;9.162;2023-03-01T14:03:10;23.10;;;14.73;;
35540;SDS011;21650;48.840;9.162;2023-03-01T14:05:42;23.83;;;14.67;;
35540;SDS011;21650;48.840;9.162;2023-03-01T14:08:19;25.43;;;15.17;;
35540;SDS011;21650;48.840;9.162;2023-03-01T14:16:53;27.97;;;15.50;;
35540;SDS011;21650;48.840;9.162;2023-03-01T14:19:39;25.50;;;16.17;;
35540;SDS011;21650;48.840;9.162;2023-03-01T14:22:27;27.70;;;16.10;;
35540;SDS011;21650;48.840;9.162;2023-03-01T14:24:58;24.93;;;16.60;;
35540;SDS011;21650;48.840;9.162;2023-03-01T14:27:44;27.90;;;16.30;;
35540;SDS011;21650;48.840;9.162;2023-03-01T14:30:20;23.73;;;15.63;;
35540;SDS011;21650;48.840;9.162;2023-03-01T14:35:25;26.73;;;15.37;;
35540;SDS011;21650;48.840;9.162;2023-03-01T14:37:53;22.73;;;15.37;;
35540;SDS011;21650;48.840;9.162;2023-03-01T14:40:39;24.13;;;13.83;;
35540;SDS011;21650;48.840;9.162;2023-03-01T14:43:11;29.20;;;16.63;;
35540;SDS011;21650;48.840;9.162;2023-03-01T14:45:48;25.57;;;15.80;;
35540;SDS011;21650;48.840;9.162;2023-03-01T14:48:15;23.83;;;14.87;;
35540;SDS011;21650;48.840;9.162;2023-03-01T14:50:41;26.20;;;15.80;;
35540;SDS011;21650;48.840;9.162;2023-03-01T14:53:19;24.57;;;15.20;;
35540;SDS011;21650;48.840;9.162;2023-03-01T14:55:51;24.83;;;15.90;;
35540;SDS011;21650;48.840;9.162;2023-03-01T14:58:20;27.00;;;15.70;;
35540;SDS011;21650;48.840;9.162;2023-03-01T15:00:50;24.43;;;16.07;;
35540;SDS011;21650;48.840;9.162;2023-03-01T15:03:25;24.90;;;15.30;;
35540;SDS011;21650;48.840;9.162;2023-03-01T15:06:08;25.53;;;15.10;;
35540;SDS011;21650;48.840;9.162;2023-03-01T15:08:37;24.53;;;15.33;;
35540;SDS011;21650;48.840;9.162;2023-03-01T15:13:49;24.63;;;15.23;;
35540;SDS011;21650;48.840;9.162;2023-03-01T15:16:19;27.63;;;15.50;;
35540;SDS011;21650;48.840;9.162;2023-03-01T15:18:58;26.50;;;14.87;;
35540;SDS011;21650;48.840;9.162;2023-03-01T15:21:30;26.47;;;15.50;;
35540;SDS011;21650;48.840;9.162;2023-03-01T15:24:00;25.77;;;15.70;;
35540;SDS011;21650;48.840;9.162;2023-03-01T15:26:31;25.63;;;15.80;;
35540;SDS011;21650;48.840;9.162;2023-03-01T15:29:02;31.47;;;16.43;;
35540;SDS011;21650;48.840;9.162;2023-03-01T15:31:29;22.93;;;15.17;;
35540;SDS011;21650;48.840;9.162;2023-03-01T15:36:49;25.00;;;14.43;;
35540;SDS011;21650;48.840;9.162;2023-03-01T15:42:05;24.37;;;13.50;;
35540;SDS011;21650;48.840;9.162;2023-03-01T15:44:49;29.27;;;16.93;;
35540;SDS011;21650;48.840;9.162;2023-03-01T15:47:22;27.10;;;14.67;;
35540;SDS011;21650;48.840;9.162;2023-03-01T15:49:51;25.80;;;14.73;;
35540;SDS011;21650;48.840;9.162;2023-03-01T15:52:23;23.77;;;14.03;;
35540;SDS011;21650;48.840;9.162;2023-03-01T15:54:59;24.17;;;15.67;;
35540;SDS011;21650;48.840;9.162;2023-03-01T15:57:27;25.70;;;15.10;;
35540;SDS011;21650;48.840;9.162;2023-03-01T15:59:52;26.27;;;14.43;;
35540;SDS011;21650;48.840;9.162;2023-03-01T16:02:19;29.57;;;14.87;;
35540;SDS011;21650;48.840;9.162;2023-03-01T16:04:46;23.27;;;14.57;;
35540;SDS011;21650;48.840;9.162;2023-03-01T16:07:12;25.37;;;15.53;;
35540;SDS011;21650;48.840;9.162;2023-03-01T16:09:38;23.40;;;13.93;;
35540;SDS011;21650;48.840;9.162;2023-03-01T16:12:03;22.83;;;13.97;;
35540;SDS011;21650;48.840;9.162;2023-03-01T16:14:30;24.50;;;14.03;;
35540;SDS011;21650;48.840;9.162;2023-03-01T16:16:56;31.27;;;13.97;;
35540;SDS011;21650;48.840;9.162;2023-03-01T16:19:22;23.13;;;13.97;;
35540;SDS011;21650;48.840;9.162;2023-03-01T16:21:47;22.63;;;14.33;;
35540;SDS011;21650;48.840;9.162;2023-03-01T16:24:14;27.37;;;15.00;;
35540;SDS011;21650;48.840;9.162;2023-03-01T16:26:40;23.93;;;13.90;;
35540;SDS011;21650;48.840;9.162;2023-03-01T16:29:07;21.57;;;14.30;;
35540;SDS011;21650;48.840;9.162;2023-03-01T16:31:32;25.20;;;13.80;;
35540;SDS011;21650;48.840;9.162;2023-03-01T16:33:58;24.27;;;13.97;;
35540;SDS011;21650;48.840;9.162;2023-03-01T16:36:25;25.80;;;14.43;;